Edina, MN (55435)

15:21 CDT le 24 juillet 2016 (GMT -0500)
Edina: Fred Richards Park | | Change Station

Alt. 835 ft 44.87 °N, 93.34 °W | Updated 4 seconds ago

Scattered Clouds
Nuages épars
84.0 ° F
Paraît 86 ° F
N
6.0
Vent Variable Vent de NO
Gusts 12.0 mph

Aujourd'hui
Haut(e) -- | Bas -- ° F
--% Risque de précip.
Hier
Haut(e) -- | Bas -- ° F
Precip. -- pouce
Pression 29.89 pouce
Visibilité 10.0 Miles terrestres
Nuages Peu 17000 ft
Nuages épars 25000 ft
indice de chaleur 86 ° F
Point de rosée 65 ° F
Humidité 53%
Précipitations 0.02 pouce
Profondeur de la couche neigeuse Non disponible.
5:50 AM 8:48 PM
Lune gibbeuse décroissante, 73% visible
SPECI KMSP 242010Z 30010KT 10SM FEW170 SCT250 29/17 A2989 RMK AO2 WSHFT 1950 T02890167
Pression 29.89 pouce
Visibilité 10.0 Miles terrestres
Nuages Peu 17000 ft
Nuages épars 25000 ft
indice de chaleur 86 ° F
Point de rosée 65 ° F
Humidité 53%
Précipitations 0.02 pouce
Profondeur de la couche neigeuse Non disponible.
5:50 AM 8:48 PM
Lune gibbeuse décroissante, 73% visible
SPECI KMSP 242010Z 30010KT 10SM FEW170 SCT250 29/17 A2989 RMK AO2 WSHFT 1950 T02890167

10-Day Weather Forecast

Almanac

Astronomie

Jul. 24, 2016 Lever Coucher
Temps réel
Crépuscule civil
Crépuscule nautique
Crépuscule astronomique
Lune
Durée de lumière visible
Longueur du jour
Tomorrow will be .
, % of the Moon is Illuminated

Extrêmes aujourd'hui

State Highs State Lows

Community

WunderPhotos

Upload Photos

1,927,181 Photos téléchargées !

WunderBlog® & News

Nearby

Qualité de l'air

  Qualité de l'air Indice de la qualité de l'air Polluant
Not available.

Épaisseur de neige

Station Depth Altitude

Activité sismique

Ville Distance Mag. Time & Date
Minimum magnitude displayed is 2.5.

Températures des eaux côtières

Lieu Température

Stations

Stations météo à proximité

Emplacement de la station Température Refroidissement éolien Point de rosée Humidité Vent Precip. Alt. Mise à jour Type
                   

Watches & Warnings

There are currently no watches in effect.